createdAt,value
2018-02-20T00:02:16.328Z,40.42
2018-02-20T00:04:43.972Z,35.73
2018-02-20T00:07:12.212Z,34.85
2018-02-20T00:09:39.931Z,31.42
2018-02-20T00:12:08.008Z,39.63
2018-02-20T00:14:35.737Z,33.55
2018-02-20T00:17:03.425Z,37.83
2018-02-20T00:19:31.558Z,34.57
2018-02-20T00:21:59.913Z,35.42
2018-02-20T00:24:27.556Z,32.13
2018-02-20T00:26:55.295Z,43.70
2018-02-20T00:29:23.002Z,41.77
2018-02-20T00:31:50.683Z,43.08
2018-02-20T00:34:18.472Z,47.00
2018-02-20T00:36:46.896Z,48.40
2018-02-20T00:39:15.086Z,48.63
2018-02-20T00:41:42.805Z,51.97
2018-02-20T00:44:10.483Z,45.73
2018-02-20T00:46:38.422Z,41.80
2018-02-20T00:49:06.775Z,44.07
2018-02-20T00:51:35.761Z,43.97
2018-02-20T00:54:03.482Z,43.80
2018-02-20T00:56:31.129Z,45.42
2018-02-20T00:59:00.567Z,44.00
2018-02-20T01:01:28.261Z,49.10
2018-02-20T01:03:56.027Z,46.65
2018-02-20T01:06:23.814Z,47.83
2018-02-20T01:08:51.896Z,47.70
2018-02-20T01:11:19.924Z,54.20
2018-02-20T01:13:48.420Z,49.23
2018-02-20T01:16:16.178Z,54.73
2018-02-20T01:18:43.954Z,48.67
2018-02-20T01:21:12.643Z,47.38
2018-02-20T01:23:40.505Z,44.87
2018-02-20T01:26:09.450Z,43.67
2018-02-20T01:28:37.295Z,51.10
2018-02-20T01:31:05.407Z,48.90
2018-02-20T01:33:33.158Z,40.57
2018-02-20T01:36:00.862Z,49.15
2018-02-20T01:38:28.518Z,48.67
2018-02-20T01:40:56.214Z,51.80
2018-02-20T01:43:23.886Z,43.80
2018-02-20T01:45:51.586Z,44.00
2018-02-20T01:48:19.277Z,42.03
2018-02-20T01:50:58.710Z,58.35
2018-02-20T01:53:26.383Z,50.60
2018-02-20T01:55:54.939Z,45.50
2018-02-20T01:58:22.623Z,47.22
2018-02-20T02:00:50.599Z,51.40
2018-02-20T02:03:18.373Z,50.93
2018-02-20T02:05:46.417Z,48.97
2018-02-20T02:08:14.163Z,49.77
2018-02-20T02:10:41.878Z,55.30
2018-02-20T02:13:09.603Z,49.10
2018-02-20T02:15:37.266Z,43.07
2018-02-20T02:18:04.938Z,42.73
2018-02-20T02:20:32.622Z,51.10
2018-02-20T02:23:01.233Z,50.60
2018-02-20T02:25:28.944Z,52.62
2018-02-20T02:27:56.747Z,46.83
2018-02-20T02:30:24.418Z,57.93
2018-02-20T02:32:52.085Z,52.70
2018-02-20T02:35:19.739Z,49.10
2018-02-20T02:37:47.418Z,44.33
2018-02-20T02:40:15.165Z,46.33
2018-02-20T02:42:43.268Z,50.35
2018-02-20T02:45:10.937Z,57.73
2018-02-20T02:47:38.931Z,48.92
2018-02-20T02:50:06.659Z,43.90
2018-02-20T02:52:34.348Z,49.05
2018-02-20T02:55:02.082Z,51.43
2018-02-20T02:57:29.761Z,47.70
2018-02-20T02:59:57.500Z,49.10
2018-02-20T03:02:25.257Z,47.95
2018-02-20T03:04:52.918Z,45.33
2018-02-20T03:07:20.606Z,51.43
2018-02-20T03:09:48.254Z,46.00
2018-02-20T03:12:15.914Z,52.87
2018-02-20T03:14:43.645Z,44.27
2018-02-20T03:17:11.741Z,46.80
2018-02-20T03:19:39.389Z,51.80
2018-02-20T03:22:07.448Z,52.70
2018-02-20T03:24:35.556Z,49.30
2018-02-20T03:27:03.568Z,51.47
2018-02-20T03:29:31.231Z,58.30
2018-02-20T03:31:58.914Z,49.60
2018-02-20T03:34:27.003Z,48.27
2018-02-20T03:36:55.027Z,48.00
2018-02-20T03:39:22.706Z,48.30
2018-02-20T03:41:50.789Z,48.70
2018-02-20T03:44:18.538Z,52.57
2018-02-20T03:46:46.209Z,45.40
2018-02-20T03:49:13.908Z,55.28
2018-02-20T03:51:42.673Z,50.47
2018-02-20T03:54:10.776Z,59.53
2018-02-20T03:56:38.462Z,48.53
2018-02-20T03:59:06.562Z,47.90
2018-02-20T04:01:34.302Z,50.07
2018-02-20T04:04:01.992Z,53.35
2018-02-20T04:06:29.563Z,57.10
2018-02-20T04:08:57.612Z,50.00
2018-02-20T04:11:25.308Z,46.83
2018-02-20T04:13:53.366Z,47.33
2018-02-20T04:16:21.458Z,54.47
2018-02-20T04:18:49.187Z,59.17
2018-02-20T04:21:16.899Z,51.75
2018-02-20T04:23:44.856Z,54.92
2018-02-20T04:26:12.600Z,46.17
2018-02-20T04:28:40.715Z,58.57
2018-02-20T04:31:08.393Z,51.50
2018-02-20T04:33:36.036Z,51.40
2018-02-20T04:36:03.693Z,54.60
2018-02-20T04:38:31.458Z,52.37
2018-02-20T04:41:03.853Z,49.43
2018-02-20T04:43:31.605Z,52.73
2018-02-20T04:45:59.473Z,51.97
2018-02-20T04:48:28.432Z,50.30
2018-02-20T04:50:56.164Z,60.28
2018-02-20T04:53:23.886Z,51.10
2018-02-20T04:55:51.552Z,58.70
2018-02-20T04:58:19.275Z,53.27
2018-02-20T05:00:46.973Z,65.60
2018-02-20T05:03:14.709Z,49.15
2018-02-20T05:05:42.376Z,57.73
2018-02-20T05:08:10.102Z,56.90
2018-02-20T05:10:37.915Z,60.87
2018-02-20T05:13:05.571Z,51.22
2018-02-20T05:15:33.319Z,58.63
2018-02-20T05:18:01.033Z,55.30
2018-02-20T05:20:28.690Z,58.75
2018-02-20T05:22:56.929Z,59.67
2018-02-20T05:25:24.751Z,55.87
2018-02-20T05:27:52.410Z,70.13
2018-02-20T05:30:20.100Z,71.93
2018-02-20T05:32:47.863Z,58.67
2018-02-20T05:35:15.596Z,54.73
2018-02-20T05:37:43.276Z,54.70
2018-02-20T05:40:11.427Z,52.83
2018-02-20T05:42:39.129Z,61.60
2018-02-20T05:45:07.238Z,53.40
2018-02-20T05:47:34.956Z,59.67
2018-02-20T05:50:03.216Z,51.27
2018-02-20T05:52:31.352Z,63.33
2018-02-20T05:54:59.979Z,57.23
2018-02-20T05:57:28.061Z,55.27
2018-02-20T05:59:56.152Z,58.42
2018-02-20T06:02:24.218Z,57.57
2018-02-20T06:04:52.181Z,68.20
2018-02-20T06:07:19.827Z,59.00
2018-02-20T06:09:47.455Z,45.80
2018-02-20T06:12:15.029Z,54.03
2018-02-20T06:14:42.605Z,54.25
2018-02-20T06:17:15.638Z,53.50
2018-02-20T06:19:44.376Z,64.03
2018-02-20T06:22:12.083Z,56.30
2018-02-20T06:24:41.529Z,47.73
2018-02-20T06:30:17.718Z,59.33
2018-02-20T06:32:45.464Z,54.40
2018-02-20T06:35:14.168Z,45.97
2018-02-20T06:37:42.964Z,53.43
2018-02-20T06:40:12.791Z,55.38
2018-02-20T06:42:40.542Z,51.47
2018-02-20T06:45:11.971Z,65.70
2018-02-20T06:47:49.218Z,50.83
2018-02-20T06:50:37.045Z,48.97
2018-02-20T06:53:07.247Z,54.27
2018-02-20T06:55:38.948Z,59.80
2018-02-20T06:58:06.754Z,50.40
2018-02-20T07:00:35.746Z,52.17
2018-02-20T07:03:04.005Z,51.87
2018-02-20T07:05:34.933Z,56.05
2018-02-20T07:08:07.447Z,59.13
2018-02-20T07:10:35.895Z,50.47
2018-02-20T07:13:03.595Z,49.30
2018-02-20T07:15:33.243Z,47.08
2018-02-20T07:18:02.062Z,51.03
2018-02-20T07:20:30.802Z,60.00
2018-02-20T07:23:01.246Z,53.93
2018-02-20T07:25:32.343Z,55.67
2018-02-20T07:28:00.922Z,56.57
2018-02-20T07:30:28.665Z,47.97
2018-02-20T07:32:56.263Z,58.17
2018-02-20T07:35:24.401Z,55.33
2018-02-20T07:37:59.702Z,59.60
2018-02-20T07:40:29.467Z,57.33
2018-02-20T07:42:57.659Z,52.13
2018-02-20T07:45:25.751Z,47.50
2018-02-20T07:50:33.908Z,48.43
2018-02-20T07:53:02.540Z,49.93
2018-02-20T07:55:32.945Z,61.10
2018-02-20T07:58:02.430Z,45.95
2018-02-20T08:00:30.154Z,53.57
2018-02-20T08:02:58.680Z,60.17
2018-02-20T08:05:26.360Z,51.63
2018-02-20T08:07:55.132Z,54.45
2018-02-20T08:10:24.337Z,54.30
2018-02-20T08:12:52.045Z,56.55
2018-02-20T08:15:20.863Z,61.40
2018-02-20T08:17:48.515Z,58.80
2018-02-20T08:20:16.243Z,54.77
2018-02-20T08:22:44.720Z,65.47
2018-02-20T08:25:12.400Z,55.87
2018-02-20T08:27:41.078Z,52.27
2018-02-20T08:30:16.628Z,52.97
2018-02-20T08:32:51.979Z,54.90
2018-02-20T08:35:24.349Z,51.93
2018-02-20T08:37:55.604Z,62.40
2018-02-20T08:40:31.389Z,57.13
2018-02-20T08:43:07.135Z,54.30
2018-02-20T08:45:36.643Z,59.58
2018-02-20T08:48:05.514Z,54.80
2018-02-20T08:50:35.577Z,61.33
2018-02-20T08:53:15.426Z,51.47
2018-02-20T08:58:29.028Z,52.30
2018-02-20T09:01:00.827Z,56.20
2018-02-20T09:03:28.687Z,59.20
2018-02-20T09:05:58.642Z,59.87
2018-02-20T09:08:29.037Z,55.77
2018-02-20T09:10:57.717Z,50.65
2018-02-20T09:13:26.401Z,56.87
2018-02-20T09:15:54.066Z,58.30
2018-02-20T09:18:22.218Z,58.33
2018-02-20T09:20:52.031Z,52.35
2018-02-20T09:23:24.659Z,53.70
2018-02-20T09:25:53.905Z,54.77
2018-02-20T09:28:23.795Z,55.40
2018-02-20T09:30:52.619Z,58.43
2018-02-20T09:33:24.219Z,52.40
2018-02-20T09:35:56.711Z,52.73
2018-02-20T09:38:30.677Z,63.27
2018-02-20T09:40:58.462Z,58.20
2018-02-20T09:43:27.452Z,61.85
2018-02-20T09:45:56.976Z,53.30
2018-02-20T09:48:24.874Z,54.20
2018-02-20T09:50:52.462Z,52.77
2018-02-20T09:53:21.656Z,62.75
2018-02-20T09:55:52.741Z,53.53
2018-02-20T09:58:26.743Z,55.12
2018-02-20T10:00:54.483Z,52.83
2018-02-20T10:03:22.112Z,48.13
2018-02-20T10:05:49.673Z,50.15
2018-02-20T10:08:18.809Z,56.23
2018-02-20T10:10:46.886Z,54.73
2018-02-20T10:13:14.494Z,53.90
2018-02-20T10:15:42.076Z,54.10
2018-02-20T10:18:10.523Z,59.07
2018-02-20T10:20:39.364Z,55.78
2018-02-20T10:23:06.959Z,59.27
2018-02-20T10:25:34.959Z,61.37
2018-02-20T10:28:03.102Z,54.10
2018-02-20T10:30:30.734Z,54.77
2018-02-20T10:33:02.540Z,50.03
2018-02-20T10:35:30.127Z,63.73
2018-02-20T10:37:57.726Z,55.22
2018-02-20T10:40:25.936Z,55.43
2018-02-20T10:42:53.587Z,50.50
2018-02-20T10:45:21.214Z,58.07
2018-02-20T10:47:48.824Z,51.97
2018-02-20T10:50:16.487Z,54.90
2018-02-20T10:52:44.786Z,50.27
2018-02-20T10:59:18.596Z,53.80
2018-02-20T11:01:51.850Z,55.38
2018-02-20T11:04:21.507Z,52.73
2018-02-20T11:06:49.084Z,49.87
2018-02-20T11:09:19.812Z,54.13
2018-02-20T11:11:47.429Z,48.70
2018-02-20T11:14:17.244Z,50.93
2018-02-20T11:16:46.928Z,55.95
2018-02-20T11:19:14.671Z,52.60
2018-02-20T11:21:42.803Z,62.10
2018-02-20T11:24:11.854Z,60.87
2018-02-20T11:26:41.236Z,55.50
2018-02-20T11:29:14.958Z,47.57
2018-02-20T11:31:46.134Z,51.10
2018-02-20T11:34:16.624Z,42.53
2018-02-20T11:36:46.641Z,48.78
2018-02-20T11:39:17.586Z,46.27
2018-02-20T11:41:45.963Z,47.35
2018-02-20T11:44:15.858Z,34.78
2018-02-20T11:46:46.170Z,45.43
2018-02-20T11:49:14.964Z,45.28
2018-02-20T12:38:06.545Z,42.20
2018-02-20T12:40:38.154Z,39.75
2018-02-20T12:43:10.624Z,44.05
2018-02-20T12:45:42.985Z,47.27
2018-02-20T12:48:14.051Z,45.59
2018-02-20T12:53:50.530Z,49.58
2018-02-20T12:56:18.353Z,51.05
2018-02-20T12:59:03.313Z,44.48
2018-02-20T13:01:36.877Z,46.07
2018-02-20T13:10:13.307Z,47.83
2018-02-20T13:12:47.605Z,50.33
2018-02-20T13:15:38.617Z,47.60
2018-02-20T13:18:07.771Z,54.40
2018-02-20T13:20:40.582Z,54.53
2018-02-20T13:23:09.456Z,52.30
2018-02-20T13:25:38.230Z,53.50
2018-02-20T13:28:05.903Z,59.83
2018-02-20T13:30:33.545Z,53.57
2018-02-20T13:33:04.053Z,47.40
2018-02-20T13:35:32.301Z,48.20
2018-02-20T13:37:59.992Z,48.00
2018-02-20T13:40:28.285Z,45.22
2018-02-20T13:42:55.934Z,52.20
2018-02-20T13:45:23.926Z,55.78
2018-02-20T13:47:51.693Z,46.13
2018-02-20T13:50:19.389Z,47.40
2018-02-20T13:52:47.798Z,52.80
2018-02-20T13:55:15.776Z,39.63
2018-02-20T13:57:43.576Z,47.63
2018-02-20T14:00:11.205Z,52.92
2018-02-20T14:02:38.792Z,40.37
2018-02-20T14:05:09.583Z,51.43
2018-02-20T14:07:37.306Z,53.77
2018-02-20T14:10:04.986Z,45.57
2018-02-20T14:12:32.987Z,53.47
2018-02-20T14:15:00.753Z,52.67
2018-02-20T14:17:29.336Z,48.67
2018-02-20T14:19:57.030Z,52.50
2018-02-20T14:22:25.637Z,49.35
2018-02-20T14:24:53.313Z,54.20
2018-02-20T14:27:23.528Z,55.80
2018-02-20T14:29:52.868Z,55.10
2018-02-20T14:32:20.693Z,54.30
2018-02-20T14:34:49.373Z,54.23
2018-02-20T14:37:17.066Z,55.37
2018-02-20T14:39:46.116Z,61.20
2018-02-20T14:42:13.838Z,55.70
2018-02-20T14:44:42.625Z,56.60
2018-02-20T14:49:59.154Z,56.40
2018-02-20T14:52:26.849Z,60.25
2018-02-20T14:54:58.063Z,56.83
2018-02-20T14:57:27.684Z,50.03
2018-02-20T14:59:55.358Z,52.90
2018-02-20T15:02:23.004Z,59.97
2018-02-20T15:04:50.686Z,68.63
2018-02-20T15:07:19.157Z,61.70
2018-02-20T15:09:46.857Z,57.58
2018-02-20T15:12:15.489Z,59.17
2018-02-20T15:14:43.154Z,57.60
2018-02-20T15:17:11.447Z,61.63
2018-02-20T15:19:40.056Z,57.63
2018-02-20T15:22:09.513Z,63.17
2018-02-20T15:24:37.244Z,64.57
2018-02-20T15:27:05.337Z,57.10
2018-02-20T15:29:34.280Z,60.93
2018-02-20T15:32:03.023Z,63.15
2018-02-20T15:34:30.710Z,52.80
2018-02-20T15:36:59.687Z,64.27
2018-02-20T15:39:27.391Z,61.58
2018-02-20T15:41:55.027Z,67.63
2018-02-20T15:44:22.697Z,61.60
2018-02-20T15:46:50.452Z,64.70
2018-02-20T17:22:04.968Z,57.22
2018-02-20T17:24:33.270Z,66.10
2018-02-20T17:27:00.855Z,68.53
2018-02-20T17:29:39.253Z,59.57
2018-02-20T17:32:06.829Z,68.70
2018-02-20T17:34:34.398Z,64.27
2018-02-20T17:37:01.959Z,68.73
2018-02-20T17:39:29.528Z,69.37
2018-02-20T17:41:57.199Z,56.23
2018-02-20T17:44:24.820Z,73.62
2018-02-20T17:46:53.109Z,71.77
2018-02-20T17:49:20.704Z,69.33
2018-02-20T17:51:48.243Z,66.22
2018-02-20T17:54:15.816Z,65.90
2018-02-20T17:56:43.766Z,62.83
2018-02-20T17:59:31.322Z,68.63
2018-02-20T18:01:58.903Z,67.60
2018-02-20T18:04:26.968Z,66.75
2018-02-20T18:06:54.567Z,65.97
2018-02-20T18:09:22.119Z,75.53
2018-02-20T18:11:49.693Z,69.00
2018-02-20T18:14:17.315Z,65.47
2018-02-20T18:16:45.289Z,69.73
2018-02-20T18:19:12.842Z,62.40
2018-02-20T18:21:40.824Z,70.03
2018-02-20T18:24:10.252Z,77.90
2018-02-20T18:26:37.837Z,63.07
2018-02-20T18:29:07.053Z,69.40
2018-02-20T18:31:34.800Z,66.60
2018-02-20T18:34:02.403Z,66.10
2018-02-20T18:36:30.482Z,72.47
2018-02-20T18:38:58.711Z,70.23
2018-02-20T18:41:26.305Z,70.00
2018-02-20T18:43:53.907Z,81.50
2018-02-20T18:46:21.532Z,75.50
2018-02-20T18:48:49.665Z,68.30
2018-02-20T18:51:17.864Z,70.37
2018-02-20T18:53:47.362Z,62.80
2018-02-20T18:56:15.362Z,60.67
2018-02-20T18:58:43.614Z,68.30
2018-02-20T19:01:11.791Z,64.73
2018-02-20T19:03:39.802Z,61.17
2018-02-20T19:06:10.599Z,72.23
2018-02-20T19:08:38.653Z,62.07
2018-02-20T19:11:07.680Z,57.20
2018-02-20T19:13:47.175Z,59.10
2018-02-20T19:16:14.776Z,61.78
2018-02-20T19:18:44.424Z,63.63
2018-02-20T19:21:11.997Z,61.50
2018-02-20T19:23:39.763Z,61.50
2018-02-20T19:26:07.362Z,65.23
2018-02-20T19:28:35.318Z,60.13
2018-02-20T19:31:03.330Z,65.80
2018-02-20T19:33:30.928Z,60.30
2018-02-20T19:35:58.441Z,64.50
2018-02-20T19:38:26.009Z,60.97
2018-02-20T19:40:53.568Z,68.18
2018-02-20T19:43:21.200Z,65.53
2018-02-20T19:46:00.102Z,64.40
2018-02-20T19:48:28.528Z,60.33
2018-02-20T19:50:57.034Z,61.90
2018-02-20T19:53:24.652Z,70.83
2018-02-20T19:55:52.597Z,69.30
2018-02-20T19:58:20.163Z,71.87
2018-02-20T20:00:48.170Z,59.75
2018-02-20T20:03:17.003Z,61.13
2018-02-20T20:05:44.808Z,71.57
2018-02-20T20:08:12.399Z,68.70
2018-02-20T20:10:40.231Z,70.67
2018-02-20T20:13:07.848Z,75.72
2018-02-20T20:15:35.491Z,62.57
2018-02-20T20:18:03.146Z,63.27
2018-02-20T20:20:37.009Z,82.07
2018-02-20T20:22:58.418Z,76.53
2018-02-20T20:25:27.114Z,78.05
2018-02-20T20:27:54.823Z,75.50
2018-02-20T20:30:22.544Z,73.95
2018-02-20T20:32:50.169Z,82.43
2018-02-20T20:35:18.371Z,66.67
2018-02-20T20:37:46.302Z,72.37
2018-02-20T20:40:15.488Z,77.87
2018-02-20T20:42:44.019Z,75.53
2018-02-20T20:45:11.975Z,72.47
2018-02-20T20:47:40.191Z,79.27
2018-02-20T20:50:07.861Z,78.33
2018-02-20T20:52:36.277Z,78.93
2018-02-20T20:55:03.855Z,81.07
2018-02-20T20:57:31.483Z,75.28
2018-02-20T20:59:59.095Z,80.70
2018-02-20T21:02:26.684Z,74.80
2018-02-20T21:04:54.255Z,82.27
2018-02-20T21:07:22.692Z,73.93
2018-02-20T21:09:50.680Z,78.40
2018-02-20T21:12:18.253Z,76.17
2018-02-20T21:14:45.909Z,84.80
2018-02-20T21:17:13.958Z,84.30
2018-02-20T21:19:42.150Z,82.40
2018-02-20T21:22:09.720Z,79.67
2018-02-20T21:24:37.341Z,83.30
2018-02-20T21:27:04.906Z,86.35
2018-02-20T21:29:32.949Z,85.00
2018-02-20T21:32:00.577Z,88.05
2018-02-20T21:34:28.572Z,93.73
2018-02-20T21:36:56.502Z,81.20
2018-02-20T21:39:24.078Z,83.17
2018-02-20T21:41:51.670Z,95.62
2018-02-20T21:44:19.245Z,75.63
2018-02-20T21:46:47.724Z,85.37
2018-02-20T21:49:15.690Z,90.20
2018-02-20T21:51:43.317Z,78.70
2018-02-20T21:54:10.885Z,86.03
2018-02-20T21:56:40.032Z,88.50
2018-02-20T21:59:07.667Z,81.50
2018-02-20T22:01:40.191Z,87.23
2018-02-20T22:04:07.916Z,94.55
2018-02-20T22:06:35.916Z,100.20
2018-02-20T22:09:03.490Z,92.03
2018-02-20T22:11:31.051Z,88.80
2018-02-20T22:13:58.662Z,90.53
2018-02-20T22:16:26.259Z,87.47
2018-02-20T22:18:53.866Z,92.47
2018-02-20T22:21:21.892Z,91.07
2018-02-20T22:23:49.498Z,101.30
2018-02-20T22:26:17.069Z,99.23
2018-02-20T22:28:45.093Z,93.07
2018-02-20T22:31:19.981Z,84.20
2018-02-20T22:33:47.610Z,83.20
2018-02-20T22:36:15.240Z,82.80
2018-02-20T22:38:42.843Z,96.40
2018-02-20T22:41:10.477Z,85.43
2018-02-20T22:43:38.028Z,97.20
2018-02-20T22:46:05.716Z,90.10
2018-02-20T22:48:33.394Z,84.65
2018-02-20T22:51:00.933Z,94.20
2018-02-20T22:53:28.977Z,103.87
2018-02-20T22:55:56.557Z,90.03
2018-02-20T22:58:24.139Z,93.15
2018-02-20T23:00:51.713Z,95.17
2018-02-20T23:03:19.374Z,105.53
2018-02-20T23:05:47.319Z,107.95
2018-02-20T23:08:14.889Z,99.37
2018-02-20T23:10:42.462Z,102.87
2018-02-20T23:13:10.039Z,99.40
2018-02-20T23:15:37.976Z,102.60
2018-02-20T23:18:11.159Z,97.20
2018-02-20T23:20:38.697Z,98.67
2018-02-20T23:23:06.289Z,92.90
2018-02-20T23:28:32.270Z,91.03
2018-02-20T23:30:59.898Z,107.80
2018-02-20T23:33:28.830Z,85.23
2018-02-20T23:35:56.415Z,88.60
2018-02-20T23:38:30.323Z,83.80
2018-02-20T23:40:57.918Z,90.83
2018-02-20T23:43:25.897Z,82.67
2018-02-20T23:46:00.500Z,91.70
2018-02-20T23:48:28.489Z,76.77
2018-02-20T23:51:01.616Z,87.33
2018-02-20T23:53:29.206Z,91.27
2018-02-20T23:55:59.019Z,90.77
2018-02-20T23:58:27.465Z,95.18
